sensor_id;sensor_type;location;lat;lon;timestamp;pressure;altitude;pressure_sealevel;temperature;humidity
31092;BME280;67728;53.122;12.776;2023-09-19T00:00:26;99655.69;;;17.38;98.99
31092;BME280;67728;53.122;12.776;2023-09-19T00:01:58;99655.19;;;17.31;99.46
31092;BME280;67728;53.122;12.776;2023-09-19T00:03:29;99653.81;;;17.40;99.57
31092;BME280;67728;53.122;12.776;2023-09-19T00:05:01;99650.44;;;17.38;99.01
31092;BME280;67728;53.122;12.776;2023-09-19T00:06:33;99654.28;;;17.32;99.18
31092;BME280;67728;53.122;12.776;2023-09-19T00:08:06;99654.25;;;17.47;98.66
31092;BME280;67728;53.122;12.776;2023-09-19T00:09:37;99649.59;;;17.38;99.10
31092;BME280;67728;53.122;12.776;2023-09-19T00:11:09;99643.69;;;17.34;99.29
31092;BME280;67728;53.122;12.776;2023-09-19T00:12:44;99647.22;;;17.33;99.32
31092;BME280;67728;53.122;12.776;2023-09-19T00:14:15;99645.91;;;17.26;99.44
31092;BME280;67728;53.122;12.776;2023-09-19T00:15:48;99645.06;;;17.25;99.83
31092;BME280;67728;53.122;12.776;2023-09-19T00:17:19;99641.81;;;17.22;99.86
31092;BME280;67728;53.122;12.776;2023-09-19T00:18:50;99648.53;;;17.26;99.68
31092;BME280;67728;53.122;12.776;2023-09-19T00:20:21;99653.22;;;17.21;99.93
31092;BME280;67728;53.122;12.776;2023-09-19T00:21:53;99652.66;;;17.16;100.00
31092;BME280;67728;53.122;12.776;2023-09-19T00:23:24;99650.03;;;17.16;100.00
31092;BME280;67728;53.122;12.776;2023-09-19T00:24:55;99649.75;;;17.20;100.00
31092;BME280;67728;53.122;12.776;2023-09-19T00:26:26;99643.66;;;17.20;100.00
31092;BME280;67728;53.122;12.776;2023-09-19T00:28:02;99645.25;;;17.22;100.00
31092;BME280;67728;53.122;12.776;2023-09-19T00:29:33;99655.91;;;17.19;100.00
31092;BME280;67728;53.122;12.776;2023-09-19T00:31:07;99658.34;;;17.22;100.00
31092;BME280;67728;53.122;12.776;2023-09-19T00:32:40;99661.94;;;17.21;99.71
31092;BME280;67728;53.122;12.776;2023-09-19T00:34:11;99656.31;;;17.13;100.00
31092;BME280;67728;53.122;12.776;2023-09-19T00:35:47;99658.16;;;17.11;100.00
31092;BME280;67728;53.122;12.776;2023-09-19T00:37:17;99660.03;;;17.09;100.00
31092;BME280;67728;53.122;12.776;2023-09-19T00:38:50;99656.66;;;17.07;100.00
31092;BME280;67728;53.122;12.776;2023-09-19T00:40:21;99658.44;;;17.07;100.00
31092;BME280;67728;53.122;12.776;2023-09-19T00:41:52;99661.03;;;17.07;100.00
31092;BME280;67728;53.122;12.776;2023-09-19T00:43:26;99655.53;;;17.11;100.00
31092;BME280;67728;53.122;12.776;2023-09-19T00:44:57;99656.47;;;17.10;100.00
31092;BME280;67728;53.122;12.776;2023-09-19T00:46:29;99654.59;;;17.12;100.00
31092;BME280;67728;53.122;12.776;2023-09-19T00:48:01;99659.78;;;17.14;99.97
31092;BME280;67728;53.122;12.776;2023-09-19T00:49:41;99651.13;;;17.12;100.00
31092;BME280;67728;53.122;12.776;2023-09-19T00:51:12;99649.75;;;17.20;100.00
31092;BME280;67728;53.122;12.776;2023-09-19T00:52:47;99661.44;;;17.15;99.75
31092;BME280;67728;53.122;12.776;2023-09-19T00:54:20;99666.84;;;17.12;99.57
31092;BME280;67728;53.122;12.776;2023-09-19T00:55:51;99655.53;;;17.11;99.86
31092;BME280;67728;53.122;12.776;2023-09-19T00:57:23;99655.28;;;17.16;99.38
31092;BME280;67728;53.122;12.776;2023-09-19T00:58:56;99664.56;;;17.21;99.16
31092;BME280;67728;53.122;12.776;2023-09-19T01:00:28;99668.28;;;17.17;98.99
31092;BME280;67728;53.122;12.776;2023-09-19T01:01:59;99663.78;;;17.19;98.78
31092;BME280;67728;53.122;12.776;2023-09-19T01:03:32;99671.47;;;17.22;98.64
31092;BME280;67728;53.122;12.776;2023-09-19T01:05:04;99670.44;;;17.25;98.63
31092;BME280;67728;53.122;12.776;2023-09-19T01:06:36;99672.03;;;17.27;98.62
31092;BME280;67728;53.122;12.776;2023-09-19T01:08:10;99665.84;;;17.28;97.92
31092;BME280;67728;53.122;12.776;2023-09-19T01:09:41;99677.28;;;17.27;97.97
31092;BME280;67728;53.122;12.776;2023-09-19T01:11:16;99681.59;;;17.28;98.26
31092;BME280;67728;53.122;12.776;2023-09-19T01:12:55;99678.97;;;17.28;97.82
31092;BME280;67728;53.122;12.776;2023-09-19T01:14:42;99672.81;;;17.29;97.63
31092;BME280;67728;53.122;12.776;2023-09-19T01:16:22;99670.75;;;17.34;97.59
31092;BME280;67728;53.122;12.776;2023-09-19T01:18:02;99664.28;;;17.40;97.39
31092;BME280;67728;53.122;12.776;2023-09-19T01:20:21;99676.38;;;17.43;96.63
31092;BME280;67728;53.122;12.776;2023-09-19T01:21:58;99671.03;;;17.44;96.42
31092;BME280;67728;53.122;12.776;2023-09-19T01:23:46;99673.75;;;17.43;96.37
31092;BME280;67728;53.122;12.776;2023-09-19T01:25:56;99667.38;;;17.47;95.75
31092;BME280;67728;53.122;12.776;2023-09-19T01:28:02;99660.28;;;17.49;95.70
31092;BME280;67728;53.122;12.776;2023-09-19T01:29:42;99662.97;;;17.47;95.36
31092;BME280;67728;53.122;12.776;2023-09-19T01:31:18;99665.59;;;17.47;95.65
31092;BME280;67728;53.122;12.776;2023-09-19T01:32:50;99661.22;;;17.48;95.13
31092;BME280;67728;53.122;12.776;2023-09-19T01:34:22;99659.31;;;17.50;95.55
31092;BME280;67728;53.122;12.776;2023-09-19T01:35:54;99658.28;;;17.52;94.91
31092;BME280;67728;53.122;12.776;2023-09-19T01:37:28;99654.09;;;17.50;95.03
31092;BME280;67728;53.122;12.776;2023-09-19T01:39:04;99667.19;;;17.50;95.13
31092;BME280;67728;53.122;12.776;2023-09-19T01:40:42;99655.84;;;17.49;94.67
31092;BME280;67728;53.122;12.776;2023-09-19T01:42:21;99660.28;;;17.49;95.15
31092;BME280;67728;53.122;12.776;2023-09-19T01:43:55;99662.06;;;17.48;95.04
31092;BME280;67728;53.122;12.776;2023-09-19T01:45:33;99660.28;;;17.49;95.15
31092;BME280;67728;53.122;12.776;2023-09-19T01:47:13;99663.72;;;17.49;95.07
31092;BME280;67728;53.122;12.776;2023-09-19T01:48:55;99655.84;;;17.49;95.27
31092;BME280;67728;53.122;12.776;2023-09-19T01:50:31;99666.44;;;17.48;94.79
31092;BME280;67728;53.122;12.776;2023-09-19T01:52:06;99669.06;;;17.48;94.63
31092;BME280;67728;53.122;12.776;2023-09-19T01:53:44;99670.78;;;17.49;94.37
31092;BME280;67728;53.122;12.776;2023-09-19T01:55:22;99673.22;;;17.52;93.43
31092;BME280;67728;53.122;12.776;2023-09-19T01:58:46;99667.00;;;17.53;92.94
31092;BME280;67728;53.122;12.776;2023-09-19T02:00:21;99676.59;;;17.54;92.26
31092;BME280;67728;53.122;12.776;2023-09-19T02:01:54;99672.38;;;17.51;92.26
31092;BME280;67728;53.122;12.776;2023-09-19T02:03:29;99676.81;;;17.49;92.12
31092;BME280;67728;53.122;12.776;2023-09-19T02:05:02;99679.44;;;17.49;91.79
31092;BME280;67728;53.122;12.776;2023-09-19T02:06:34;99673.38;;;17.49;91.40
31092;BME280;67728;53.122;12.776;2023-09-19T02:08:05;99675.06;;;17.50;90.78
31092;BME280;67728;53.122;12.776;2023-09-19T02:09:36;99678.63;;;17.49;89.98
31092;BME280;67728;53.122;12.776;2023-09-19T02:11:09;99682.19;;;17.48;89.80
31092;BME280;67728;53.122;12.776;2023-09-19T02:12:40;99679.84;;;17.43;89.24
31092;BME280;67728;53.122;12.776;2023-09-19T02:14:11;99685.28;;;17.40;89.17
31092;BME280;67728;53.122;12.776;2023-09-19T02:15:42;99691.44;;;17.39;88.42
31092;BME280;67728;53.122;12.776;2023-09-19T02:17:14;99697.72;;;17.37;87.93
31092;BME280;67728;53.122;12.776;2023-09-19T02:18:46;99697.63;;;17.38;88.47
31092;BME280;67728;53.122;12.776;2023-09-19T02:20:18;99687.50;;;17.32;87.85
31092;BME280;67728;53.122;12.776;2023-09-19T02:21:50;99703.41;;;17.29;87.95
31092;BME280;67728;53.122;12.776;2023-09-19T02:23:22;99704.44;;;17.26;87.45
31092;BME280;67728;53.122;12.776;2023-09-19T02:24:53;99699.38;;;17.23;87.33
31092;BME280;67728;53.122;12.776;2023-09-19T02:26:28;99705.72;;;17.19;86.97
31092;BME280;67728;53.122;12.776;2023-09-19T02:27:59;99699.72;;;17.17;86.30
31092;BME280;67728;53.122;12.776;2023-09-19T02:29:33;99698.13;;;17.15;86.15
31092;BME280;67728;53.122;12.776;2023-09-19T02:31:05;99698.06;;;17.16;84.81
31092;BME280;67728;53.122;12.776;2023-09-19T02:32:36;99694.00;;;17.11;85.71
31092;BME280;67728;53.122;12.776;2023-09-19T02:34:10;99695.59;;;17.13;84.89
31092;BME280;67728;53.122;12.776;2023-09-19T02:35:41;99696.69;;;17.09;84.37
31092;BME280;67728;53.122;12.776;2023-09-19T02:37:13;99700.06;;;17.11;84.37
31092;BME280;67728;53.122;12.776;2023-09-19T02:38:46;99692.59;;;17.05;84.62
31092;BME280;67728;53.122;12.776;2023-09-19T02:40:18;99691.81;;;17.03;84.95
31092;BME280;67728;53.122;12.776;2023-09-19T02:41:49;99695.56;;;16.99;85.03
31092;BME280;67728;53.122;12.776;2023-09-19T02:43:21;99691.41;;;16.95;84.51
31092;BME280;67728;53.122;12.776;2023-09-19T02:44:52;99698.00;;;17.02;83.99
31092;BME280;67728;53.122;12.776;2023-09-19T02:46:24;99700.69;;;17.01;83.48
31092;BME280;67728;53.122;12.776;2023-09-19T02:47:56;99696.66;;;16.95;83.80
31092;BME280;67728;53.122;12.776;2023-09-19T02:49:29;99692.19;;;16.97;84.17
31092;BME280;67728;53.122;12.776;2023-09-19T02:51:02;99695.06;;;16.93;83.56
31092;BME280;67728;53.122;12.776;2023-09-19T02:52:36;99705.81;;;16.88;83.81
31092;BME280;67728;53.122;12.776;2023-09-19T02:54:08;99705.97;;;16.85;84.66
31092;BME280;67728;53.122;12.776;2023-09-19T02:55:39;99704.47;;;16.81;83.98
31092;BME280;67728;53.122;12.776;2023-09-19T02:57:11;99705.50;;;16.79;83.75
31092;BME280;67728;53.122;12.776;2023-09-19T02:58:42;99695.94;;;16.78;84.03
31092;BME280;67728;53.122;12.776;2023-09-19T03:00:15;99696.22;;;16.73;84.57
31092;BME280;67728;53.122;12.776;2023-09-19T03:01:46;99698.72;;;16.74;83.83
31092;BME280;67728;53.122;12.776;2023-09-19T03:03:18;99699.59;;;16.75;83.95
31092;BME280;67728;53.122;12.776;2023-09-19T03:04:50;99705.09;;;16.70;84.92
31092;BME280;67728;53.122;12.776;2023-09-19T03:06:22;99710.06;;;16.75;84.31
31092;BME280;67728;53.122;12.776;2023-09-19T03:07:54;99704.06;;;16.73;84.20
31092;BME280;67728;53.122;12.776;2023-09-19T03:09:26;99702.88;;;16.79;83.70
31092;BME280;67728;53.122;12.776;2023-09-19T03:10:56;99706.59;;;16.74;83.91
31092;BME280;67728;53.122;12.776;2023-09-19T03:12:28;99718.94;;;16.72;84.41
31092;BME280;67728;53.122;12.776;2023-09-19T03:13:59;99709.09;;;16.76;84.04
31092;BME280;67728;53.122;12.776;2023-09-19T03:15:31;99717.81;;;16.77;83.67
31092;BME280;67728;53.122;12.776;2023-09-19T03:17:01;99727.66;;;16.73;84.49
31092;BME280;67728;53.122;12.776;2023-09-19T03:18:35;99726.03;;;16.70;85.04
31092;BME280;67728;53.122;12.776;2023-09-19T03:20:08;99727.03;;;16.68;85.00
31092;BME280;67728;53.122;12.776;2023-09-19T03:21:40;99733.22;;;16.67;84.91
31092;BME280;67728;53.122;12.776;2023-09-19T03:23:11;99725.53;;;16.64;84.60
31092;BME280;67728;53.122;12.776;2023-09-19T03:24:43;99726.63;;;16.60;84.49
31092;BME280;67728;53.122;12.776;2023-09-19T03:26:15;99728.66;;;16.55;84.45
31092;BME280;67728;53.122;12.776;2023-09-19T03:27:47;99728.75;;;16.53;84.79
31092;BME280;67728;53.122;12.776;2023-09-19T03:29:18;99731.41;;;16.52;84.45
31092;BME280;67728;53.122;12.776;2023-09-19T03:30:58;99731.78;;;16.61;84.75
31092;BME280;67728;53.122;12.776;2023-09-19T03:32:30;99733.97;;;16.53;85.41
31092;BME280;67728;53.122;12.776;2023-09-19T03:34:02;99734.44;;;16.44;84.39
31092;BME280;67728;53.122;12.776;2023-09-19T03:35:36;99737.22;;;16.41;85.65
31092;BME280;67728;53.122;12.776;2023-09-19T03:37:07;99738.25;;;16.39;85.40
31092;BME280;67728;53.122;12.776;2023-09-19T03:38:39;99742.88;;;16.34;85.37
31092;BME280;67728;53.122;12.776;2023-09-19T03:40:10;99742.47;;;16.41;85.57
31092;BME280;67728;53.122;12.776;2023-09-19T03:41:42;99748.53;;;16.42;85.54
31092;BME280;67728;53.122;12.776;2023-09-19T03:43:13;99745.00;;;16.43;85.42
31092;BME280;67728;53.122;12.776;2023-09-19T03:44:44;99745.94;;;16.42;84.97
31092;BME280;67728;53.122;12.776;2023-09-19T03:46:16;99746.09;;;16.39;85.52
31092;BME280;67728;53.122;12.776;2023-09-19T03:47:47;99748.38;;;16.45;86.15
31092;BME280;67728;53.122;12.776;2023-09-19T03:49:18;99753.03;;;16.40;85.93
31092;BME280;67728;53.122;12.776;2023-09-19T03:50:51;99752.34;;;16.36;86.32
31092;BME280;67728;53.122;12.776;2023-09-19T03:52:22;99753.53;;;16.31;86.11
31092;BME280;67728;53.122;12.776;2023-09-19T03:53:55;99754.69;;;16.25;86.63
31092;BME280;67728;53.122;12.776;2023-09-19T03:55:26;99749.56;;;16.24;86.56
31092;BME280;67728;53.122;12.776;2023-09-19T03:56:58;99755.81;;;16.21;86.32
31092;BME280;67728;53.122;12.776;2023-09-19T03:58:28;99756.81;;;16.19;86.40
31092;BME280;67728;53.122;12.776;2023-09-19T04:00:00;99755.97;;;16.18;86.43
31092;BME280;67728;53.122;12.776;2023-09-19T04:01:31;99752.66;;;16.14;86.33
31092;BME280;67728;53.122;12.776;2023-09-19T04:03:04;99754.94;;;16.05;87.62
31092;BME280;67728;53.122;12.776;2023-09-19T04:04:36;99754.84;;;16.06;86.84
31092;BME280;67728;53.122;12.776;2023-09-19T04:06:09;99760.06;;;16.06;87.54
31092;BME280;67728;53.122;12.776;2023-09-19T04:07:41;99749.75;;;16.03;87.23
31092;BME280;67728;53.122;12.776;2023-09-19T04:09:11;99755.78;;;16.05;87.40
31092;BME280;67728;53.122;12.776;2023-09-19T04:10:43;99757.22;;;16.11;87.43
31092;BME280;67728;53.122;12.776;2023-09-19T04:12:15;99753.81;;;16.09;87.89
31092;BME280;67728;53.122;12.776;2023-09-19T04:13:48;99752.16;;;16.08;87.60
31092;BME280;67728;53.122;12.776;2023-09-19T04:15:20;99758.41;;;16.05;86.74
31092;BME280;67728;53.122;12.776;2023-09-19T04:16:52;99762.03;;;16.03;87.18
31092;BME280;67728;53.122;12.776;2023-09-19T04:18:24;99759.56;;;16.00;88.00
31092;BME280;67728;53.122;12.776;2023-09-19T04:19:55;99760.16;;;16.05;87.36
31092;BME280;67728;53.122;12.776;2023-09-19T04:21:28;99760.38;;;16.00;87.70
31092;BME280;67728;53.122;12.776;2023-09-19T04:22:59;99762.03;;;16.03;88.30
31092;BME280;67728;53.122;12.776;2023-09-19T04:24:31;99763.78;;;16.02;87.58
31092;BME280;67728;53.122;12.776;2023-09-19T04:26:02;99766.56;;;15.99;87.31
31092;BME280;67728;53.122;12.776;2023-09-19T04:27:35;99763.84;;;16.01;87.77
31092;BME280;67728;53.122;12.776;2023-09-19T04:29:05;99763.78;;;16.02;87.83
31092;BME280;67728;53.122;12.776;2023-09-19T04:30:37;99767.06;;;16.06;88.72
31092;BME280;67728;53.122;12.776;2023-09-19T04:32:10;99762.69;;;16.06;87.80
31092;BME280;67728;53.122;12.776;2023-09-19T04:33:43;99762.78;;;16.05;88.55
31092;BME280;67728;53.122;12.776;2023-09-19T04:35:14;99772.22;;;16.07;88.06
31092;BME280;67728;53.122;12.776;2023-09-19T04:36:47;99774.09;;;16.05;88.04
31092;BME280;67728;53.122;12.776;2023-09-19T04:38:18;99774.09;;;16.05;88.32
31092;BME280;67728;53.122;12.776;2023-09-19T04:39:49;99770.84;;;16.00;87.87
31092;BME280;67728;53.122;12.776;2023-09-19T04:41:20;99777.03;;;15.99;88.40
31092;BME280;67728;53.122;12.776;2023-09-19T04:42:55;99774.56;;;15.96;88.71
31092;BME280;67728;53.122;12.776;2023-09-19T04:44:26;99785.03;;;15.96;88.28
31092;BME280;67728;53.122;12.776;2023-09-19T04:45:58;99783.47;;;15.92;89.03
31092;BME280;67728;53.122;12.776;2023-09-19T04:47:30;99790.25;;;15.96;88.87
31092;BME280;67728;53.122;12.776;2023-09-19T04:49:02;99794.56;;;15.97;88.10
31092;BME280;67728;53.122;12.776;2023-09-19T04:50:33;99794.38;;;16.00;88.94
31092;BME280;67728;53.122;12.776;2023-09-19T04:52:06;99802.19;;;16.02;88.38
31092;BME280;67728;53.122;12.776;2023-09-19T04:53:37;99806.66;;;16.00;88.00
31092;BME280;67728;53.122;12.776;2023-09-19T04:55:09;99811.03;;;15.99;88.86
31092;BME280;67728;53.122;12.776;2023-09-19T04:56:41;99810.19;;;15.99;88.72
31092;BME280;67728;53.122;12.776;2023-09-19T04:58:12;99814.56;;;15.98;88.28
31092;BME280;67728;53.122;12.776;2023-09-19T04:59:43;99807.47;;;16.00;89.29
31092;BME280;67728;53.122;12.776;2023-09-19T05:01:15;99809.09;;;16.03;88.32
31092;BME280;67728;53.122;12.776;2023-09-19T05:02:49;99810.94;;;16.01;88.78
31092;BME280;67728;53.122;12.776;2023-09-19T05:04:21;99807.47;;;16.00;89.24
31092;BME280;67728;53.122;12.776;2023-09-19T05:05:52;99816.09;;;16.02;88.52
31092;BME280;67728;53.122;12.776;2023-09-19T05:07:25;99815.94;;;16.05;88.95
31092;BME280;67728;53.122;12.776;2023-09-19T05:08:56;99817.56;;;16.08;87.87
31092;BME280;67728;53.122;12.776;2023-09-19T05:10:27;99812.47;;;16.05;88.05
31092;BME280;67728;53.122;12.776;2023-09-19T05:12:00;99812.53;;;16.03;88.50
31092;BME280;67728;53.122;12.776;2023-09-19T05:13:30;99819.78;;;15.98;88.25
31092;BME280;67728;53.122;12.776;2023-09-19T05:15:02;99816.41;;;15.96;88.78
31092;BME280;67728;53.122;12.776;2023-09-19T05:16:34;99815.41;;;15.99;88.32
31092;BME280;67728;53.122;12.776;2023-09-19T05:18:06;99813.94;;;15.93;88.80
31092;BME280;67728;53.122;12.776;2023-09-19T05:19:37;99822.09;;;15.87;89.63
31092;BME280;67728;53.122;12.776;2023-09-19T05:21:08;99816.88;;;15.87;89.03
31092;BME280;67728;53.122;12.776;2023-09-19T05:22:42;99822.91;;;15.89;89.84
31092;BME280;67728;53.122;12.776;2023-09-19T05:24:13;99829.66;;;15.93;89.58
31092;BME280;67728;53.122;12.776;2023-09-19T05:25:45;99827.94;;;15.92;89.04
31092;BME280;67728;53.122;12.776;2023-09-19T05:27:15;99831.34;;;15.94;88.76
31092;BME280;67728;53.122;12.776;2023-09-19T05:28:47;99833.16;;;15.92;88.91
31092;BME280;67728;53.122;12.776;2023-09-19T05:30:18;99836.78;;;15.90;89.16
31092;BME280;67728;53.122;12.776;2023-09-19T05:31:50;99835.88;;;15.91;89.15
31092;BME280;67728;53.122;12.776;2023-09-19T05:33:23;99835.13;;;15.89;88.66
31092;BME280;67728;53.122;12.776;2023-09-19T05:34:55;99837.88;;;15.86;89.01
31092;BME280;67728;53.122;12.776;2023-09-19T05:36:26;99837.13;;;15.84;89.73
31092;BME280;67728;53.122;12.776;2023-09-19T05:38:01;99840.81;;;15.80;89.90
31092;BME280;67728;53.122;12.776;2023-09-19T05:39:31;99841.81;;;15.77;89.27
31092;BME280;67728;53.122;12.776;2023-09-19T05:41:03;99844.44;;;15.77;90.21
31092;BME280;67728;53.122;12.776;2023-09-19T05:42:35;99850.34;;;15.81;90.05
31092;BME280;67728;53.122;12.776;2023-09-19T05:44:06;99851.34;;;15.78;88.94
31092;BME280;67728;53.122;12.776;2023-09-19T05:45:38;99853.19;;;15.76;89.11
31092;BME280;67728;53.122;12.776;2023-09-19T05:47:08;99850.56;;;15.76;89.84
31092;BME280;67728;53.122;12.776;2023-09-19T05:48:40;99856.59;;;15.78;89.82
31092;BME280;67728;53.122;12.776;2023-09-19T05:50:14;99857.25;;;15.82;90.15
31092;BME280;67728;53.122;12.776;2023-09-19T05:51:46;99860.88;;;15.79;89.82
31092;BME280;67728;53.122;12.776;2023-09-19T05:53:19;99855.75;;;15.78;89.21
31092;BME280;67728;53.122;12.776;2023-09-19T05:54:50;99862.50;;;15.82;88.97
31092;BME280;67728;53.122;12.776;2023-09-19T05:56:22;99863.28;;;15.84;89.72
31092;BME280;67728;53.122;12.776;2023-09-19T05:57:53;99863.94;;;15.87;87.97
31092;BME280;67728;53.122;12.776;2023-09-19T05:59:24;99876.66;;;15.95;87.46
31092;BME280;67728;53.122;12.776;2023-09-19T06:00:56;99870.44;;;15.97;87.52
31092;BME280;67728;53.122;12.776;2023-09-19T06:02:27;99872.88;;;16.00;87.45
31092;BME280;67728;53.122;12.776;2023-09-19T06:04:00;99873.63;;;16.20;88.29
31092;BME280;67728;53.122;12.776;2023-09-19T06:05:32;99876.72;;;16.10;87.26
31092;BME280;67728;53.122;12.776;2023-09-19T06:07:03;99873.31;;;16.08;86.70
31092;BME280;67728;53.122;12.776;2023-09-19T06:08:36;99883.78;;;16.08;87.99
31092;BME280;67728;53.122;12.776;2023-09-19T06:10:08;99879.84;;;16.17;86.99
31092;BME280;67728;53.122;12.776;2023-09-19T06:11:41;99879.53;;;16.23;87.85
31092;BME280;67728;53.122;12.776;2023-09-19T06:13:13;99882.41;;;16.19;86.41
31092;BME280;67728;53.122;12.776;2023-09-19T06:14:43;99881.66;;;16.17;87.10
31092;BME280;67728;53.122;12.776;2023-09-19T06:16:15;99887.09;;;16.12;86.66
31092;BME280;67728;53.122;12.776;2023-09-19T06:17:47;99884.25;;;16.17;86.01
31092;BME280;67728;53.122;12.776;2023-09-19T06:19:19;99894.19;;;16.27;86.26
31092;BME280;67728;53.122;12.776;2023-09-19T06:20:53;99896.78;;;16.27;85.21
31092;BME280;67728;53.122;12.776;2023-09-19T06:22:24;99896.69;;;16.29;84.98
31092;BME280;67728;53.122;12.776;2023-09-19T06:23:56;99900.63;;;16.37;85.79
31092;BME280;67728;53.122;12.776;2023-09-19T06:25:28;99903.28;;;16.36;85.49
31092;BME280;67728;53.122;12.776;2023-09-19T06:26:59;99899.91;;;16.34;85.23
31092;BME280;67728;53.122;12.776;2023-09-19T06:28:31;99904.84;;;16.40;85.33
31092;BME280;67728;53.122;12.776;2023-09-19T06:30:05;99905.59;;;16.42;84.21
31092;BME280;67728;53.122;12.776;2023-09-19T06:31:39;99904.53;;;16.46;83.95
31092;BME280;67728;53.122;12.776;2023-09-19T06:33:09;99917.28;;;16.52;84.73
31092;BME280;67728;53.122;12.776;2023-09-19T06:34:42;99908.66;;;16.67;83.81
31092;BME280;67728;53.122;12.776;2023-09-19T06:36:13;99909.34;;;16.70;83.97
31092;BME280;67728;53.122;12.776;2023-09-19T06:37:45;99913.59;;;16.73;83.34
31092;BME280;67728;53.122;12.776;2023-09-19T06:39:17;99907.22;;;16.61;82.96
31092;BME280;67728;53.122;12.776;2023-09-19T06:40:49;99915.91;;;16.62;83.06
31092;BME280;67728;53.122;12.776;2023-09-19T06:42:20;99925.09;;;16.53;82.40
31092;BME280;67728;53.122;12.776;2023-09-19T06:43:53;99923.09;;;16.58;82.63
31092;BME280;67728;53.122;12.776;2023-09-19T06:45:24;99937.09;;;16.57;82.93
31092;BME280;67728;53.122;12.776;2023-09-19T06:46:57;99926.72;;;16.56;83.02
31092;BME280;67728;53.122;12.776;2023-09-19T06:48:28;99920.72;;;16.54;82.85
31092;BME280;67728;53.122;12.776;2023-09-19T06:50:00;99934.84;;;16.50;81.56
31092;BME280;67728;53.122;12.776;2023-09-19T06:51:32;99938.47;;;16.47;81.86
31092;BME280;67728;53.122;12.776;2023-09-19T06:53:06;99935.69;;;16.50;82.09
31092;BME280;67728;53.122;12.776;2023-09-19T06:54:38;99942.56;;;16.53;82.77
31092;BME280;67728;53.122;12.776;2023-09-19T06:56:10;99950.50;;;16.51;83.17
31092;BME280;67728;53.122;12.776;2023-09-19T06:57:42;99948.66;;;16.53;82.86
31092;BME280;67728;53.122;12.776;2023-09-19T06:59:13;99943.63;;;16.66;81.38
31092;BME280;67728;53.122;12.776;2023-09-19T07:00:45;99954.78;;;16.69;81.63
31092;BME280;67728;53.122;12.776;2023-09-19T07:02:16;99962.97;;;16.63;82.32
31092;BME280;67728;53.122;12.776;2023-09-19T07:03:48;99960.44;;;16.62;81.20
31092;BME280;67728;53.122;12.776;2023-09-19T07:05:19;99964.81;;;16.61;81.12
31092;BME280;67728;53.122;12.776;2023-09-19T07:06:52;99963.53;;;16.53;81.60
31092;BME280;67728;53.122;12.776;2023-09-19T07:08:22;99967.84;;;16.54;82.01
31092;BME280;67728;53.122;12.776;2023-09-19T07:09:55;99971.66;;;16.64;82.80
31092;BME280;67728;53.122;12.776;2023-09-19T07:11:27;99980.84;;;16.55;81.76
31092;BME280;67728;53.122;12.776;2023-09-19T07:12:58;99980.84;;;16.55;81.99
31092;BME280;67728;53.122;12.776;2023-09-19T07:14:29;99974.13;;;16.50;81.57
31092;BME280;67728;53.122;12.776;2023-09-19T07:16:01;99981.06;;;16.51;80.91
31092;BME280;67728;53.122;12.776;2023-09-19T07:17:32;99983.59;;;16.52;81.02
31092;BME280;67728;53.122;12.776;2023-09-19T07:19:04;99983.06;;;16.46;81.90
31092;BME280;67728;53.122;12.776;2023-09-19T07:20:35;99984.41;;;16.54;81.98
31092;BME280;67728;53.122;12.776;2023-09-19T07:22:06;99989.31;;;16.60;81.85
31092;BME280;67728;53.122;12.776;2023-09-19T07:23:38;99989.25;;;16.62;81.66
31092;BME280;67728;53.122;12.776;2023-09-19T07:25:10;99991.00;;;16.61;81.60
31092;BME280;67728;53.122;12.776;2023-09-19T07:26:41;99987.09;;;16.53;82.37
31092;BME280;67728;53.122;12.776;2023-09-19T07:28:12;99997.50;;;16.54;81.25
31092;BME280;67728;53.122;12.776;2023-09-19T07:29:44;99985.84;;;16.60;81.79
31092;BME280;67728;53.122;12.776;2023-09-19T07:31:16;99991.41;;;16.54;81.58
31092;BME280;67728;53.122;12.776;2023-09-19T07:32:48;99994.22;;;16.49;81.22
31092;BME280;67728;53.122;12.776;2023-09-19T07:34:19;99992.53;;;16.48;81.14
31092;BME280;67728;53.122;12.776;2023-09-19T07:35:52;100009.16;;;16.47;79.72
31092;BME280;67728;53.122;12.776;2023-09-19T07:37:23;100007.69;;;16.42;80.43
31092;BME280;67728;53.122;12.776;2023-09-19T07:38:56;99997.47;;;16.37;81.01
31092;BME280;67728;53.122;12.776;2023-09-19T07:40:29;100007.31;;;16.32;81.13
31092;BME280;67728;53.122;12.776;2023-09-19T07:42:01;100008.19;;;16.33;81.60
31092;BME280;67728;53.122;12.776;2023-09-19T07:43:32;99992.53;;;16.31;80.72
31092;BME280;67728;53.122;12.776;2023-09-19T07:45:04;99997.75;;;16.31;81.25
31092;BME280;67728;53.122;12.776;2023-09-19T07:46:35;99994.22;;;16.32;81.55
31092;BME280;67728;53.122;12.776;2023-09-19T07:48:09;99994.16;;;16.34;82.34
31092;BME280;67728;53.122;12.776;2023-09-19T07:49:46;99995.09;;;16.33;81.45
31092;BME280;67728;53.122;12.776;2023-09-19T07:51:18;99985.69;;;16.29;80.77
31092;BME280;67728;53.122;12.776;2023-09-19T07:52:50;99987.06;;;16.36;80.34
31092;BME280;67728;53.122;12.776;2023-09-19T07:54:23;99995.91;;;16.50;79.71
31092;BME280;67728;53.122;12.776;2023-09-19T07:56:03;99973.22;;;16.34;79.29
31092;BME280;67728;53.122;12.776;2023-09-19T07:57:34;99988.31;;;16.46;79.09
31092;BME280;67728;53.122;12.776;2023-09-19T07:59:07;99996.66;;;16.54;79.69
31092;BME280;67728;53.122;12.776;2023-09-19T08:00:40;99990.41;;;16.56;79.04
31092;BME280;67728;53.122;12.776;2023-09-19T08:02:12;99992.94;;;16.58;79.00
31092;BME280;67728;53.122;12.776;2023-09-19T08:03:46;100003.94;;;16.64;78.88
31092;BME280;67728;53.122;12.776;2023-09-19T08:05:22;99989.69;;;16.70;77.84
31092;BME280;67728;53.122;12.776;2023-09-19T08:06:54;99983.22;;;16.93;78.17